Time;durP1;ratioP1;P1;durP2;ratioP2;P2;SDS_P1;SDS_P2;PMS_P1;PMS_P2;Temp;Humidity;BMP_temperature;BMP_pressure;BME280_temperature;BME280_humidity;BME280_pressure;Samples;Min_cycle;Max_cycle;Signal;HPM_P1;HPM_P2
2024/03/16 00:01:22;;;;;;;48.17;11.35;;;12.90;99.90;;;13.41;100.00;100820.91;4860622;29;20056;-72
2024/03/16 00:03:51;;;;;;;48.70;11.07;;;13.10;99.90;;;13.33;100.00;100825.47;4860848;29;20223;-72
2024/03/16 00:06:20;;;;;;;50.85;11.95;;;13.10;99.90;;;13.27;100.00;100821.13;4860230;29;20053;-72
2024/03/16 00:08:48;;;;;;;62.92;12.85;;;13.00;99.90;;;13.20;100.00;100840.69;4860128;29;20049;-72
2024/03/16 00:11:17;;;;;;;54.60;12.05;;;12.90;99.90;;;13.09;100.00;100845.31;4860319;29;20045;-72
2024/03/16 00:13:45;;;;;;;53.67;10.63;;;12.80;99.90;;;12.99;100.00;100843.66;4875873;29;20389;-72
2024/03/16 00:16:14;;;;;;;54.83;10.75;;;12.70;99.90;;;12.64;100.00;100848.56;4860264;29;20045;-73
2024/03/16 00:18:43;;;;;;;41.65;9.00;;;12.50;99.90;;;12.41;100.00;100866.53;4860114;29;20475;-72
2024/03/16 00:21:11;;;;;;;30.95;7.63;;;12.20;99.90;;;12.33;100.00;100860.47;4860383;29;20311;-72
2024/03/16 00:23:40;;;;;;;28.92;7.60;;;12.10;99.90;;;12.22;100.00;100870.31;4860286;29;20404;-73
2024/03/16 00:26:08;;;;;;;28.45;7.65;;;12.00;99.90;;;12.04;100.00;100867.88;4860641;29;20049;-72
2024/03/16 00:28:37;;;;;;;22.80;7.57;;;11.80;99.90;;;11.82;100.00;100880.47;4859994;29;20040;-72
2024/03/16 00:31:05;;;;;;;33.85;8.20;;;11.70;99.90;;;11.86;100.00;100884.84;4860089;29;20052;-72
2024/03/16 00:33:35;;;;;;;28.50;8.35;;;11.60;99.90;;;11.85;100.00;100890.13;4860165;29;20116;-73
2024/03/16 00:36:03;;;;;;;22.88;7.25;;;11.60;99.90;;;11.83;100.00;100892.81;4875337;29;20088;-72
2024/03/16 00:38:32;;;;;;;18.60;6.50;;;11.60;99.90;;;11.84;100.00;100902.53;4860018;29;20072;-72
2024/03/16 00:41:02;;;;;;;20.02;7.00;;;11.60;99.90;;;11.82;100.00;100903.41;4860382;29;20430;-72
2024/03/16 00:43:30;;;;;;;14.57;6.13;;;11.50;99.90;;;11.92;100.00;100911.28;4860278;29;20071;-72
2024/03/16 00:45:59;;;;;;;18.60;6.15;;;11.60;99.90;;;11.70;100.00;100905.28;4859956;29;20048;-73
2024/03/16 00:48:28;;;;;;;16.65;6.05;;;11.50;99.90;;;11.58;100.00;100910.66;4859852;29;20124;-72
2024/03/16 00:50:56;;;;;;;16.23;6.30;;;11.40;99.90;;;11.48;100.00;100922.19;4859937;29;20049;-72
2024/03/16 00:53:25;;;;;;;17.55;6.10;;;11.20;99.90;;;11.68;100.00;100928.28;4860350;29;20073;-72
2024/03/16 00:55:54;;;;;;;18.75;6.70;;;11.40;99.90;;;11.60;100.00;100930.06;4859276;29;20356;-72
2024/03/16 00:58:22;;;;;;;14.82;7.22;;;11.40;99.90;;;11.35;100.00;100932.88;4874730;29;20057;-72
2024/03/16 01:00:51;;;;;;;9.45;6.20;;;11.20;99.90;;;11.25;100.00;100937.38;4858915;29;20049;-72
2024/03/16 01:03:20;;;;;;;20.35;6.85;;;11.10;99.90;;;11.38;100.00;100940.84;4859615;29;20049;-73
2024/03/16 01:05:52;;;;;;;24.40;8.23;;;11.10;99.90;;;11.22;100.00;100955.03;4859322;29;20052;-72
2024/03/16 01:08:21;;;;;;;15.90;7.10;;;11.00;99.90;;;11.09;100.00;100963.94;4858927;29;20089;-72
2024/03/16 01:10:55;;;;;;;18.90;7.68;;;10.90;99.90;;;11.03;100.00;100964.88;4858946;29;20045;-72
2024/03/16 01:13:22;;;;;;;14.80;7.30;;;10.80;99.90;;;10.96;100.00;100957.81;4859387;29;20104;-72
2024/03/16 01:15:51;;;;;;;19.27;7.53;;;10.70;99.90;;;10.88;100.00;100978.13;4858751;29;20045;-72
2024/03/16 01:18:20;;;;;;;19.27;7.53;;;10.70;99.90;;;10.88;100.00;100957.84;4859106;29;20046;-72
2024/03/16 01:20:49;;;;;;;15.18;7.15;;;10.70;99.90;;;11.18;100.00;100977.13;4858941;29;20041;-72
2024/03/16 01:23:19;;;;;;;16.23;8.38;;;10.80;99.90;;;10.94;100.00;100971.97;4858749;29;20456;-72
2024/03/16 01:25:49;;;;;;;16.55;8.32;;;10.70;99.90;;;10.93;100.00;100979.03;4859323;29;20067;-72
2024/03/16 01:28:18;;;;;;;15.15;9.02;;;10.60;99.90;;;10.98;100.00;100989.56;4859158;29;20442;-72
2024/03/16 01:30:46;;;;;;;20.67;9.15;;;10.70;99.90;;;11.23;100.00;100977.97;4858842;29;20132;-72
2024/03/16 01:33:15;;;;;;;20.25;9.57;;;10.90;99.90;;;11.15;100.00;100980.66;4862021;29;20053;-72
2024/03/16 01:35:44;;;;;;;17.90;8.45;;;10.90;99.90;;;11.02;100.00;100965.72;4861924;29;20418;-72
2024/03/16 01:38:12;;;;;;;25.05;8.00;;;10.90;99.90;;;11.10;100.00;100989.53;4861988;29;20113;-72
2024/03/16 01:40:41;;;;;;;20.25;8.02;;;10.80;99.90;;;10.99;100.00;100992.22;4862129;29;20048;-72
2024/03/16 01:43:12;;;;;;;16.80;6.63;;;10.80;99.90;;;10.92;100.00;100987.81;4862420;29;20052;-72
2024/03/16 01:45:41;;;;;;;;;;;10.70;99.90;;;11.12;100.00;101001.88;4863043;29;20057;-72
2024/03/16 01:48:10;;;;;;;22.88;7.15;;;10.80;99.90;;;11.08;100.00;101007.19;4892777;29;20333;-72
2024/03/16 01:50:39;;;;;;;19.60;8.13;;;10.80;99.90;;;11.08;100.00;101007.19;4861837;29;20075;-71
2024/03/16 01:53:09;;;;;;;18.92;7.28;;;10.80;99.90;;;11.04;100.00;101013.38;4861771;29;20051;-72
2024/03/16 01:55:38;;;;;;;14.68;7.10;;;10.80;99.90;;;11.03;100.00;101007.22;4862086;29;20049;-72
2024/03/16 01:58:07;;;;;;;28.25;7.82;;;10.80;99.90;;;11.03;100.00;101031.03;4861602;29;20072;-72
2024/03/16 02:00:36;;;;;;;24.42;7.35;;;10.80;99.90;;;10.68;100.00;101039.03;4861863;29;20053;-72
2024/03/16 02:03:05;;;;;;;28.08;7.55;;;10.50;99.90;;;10.62;100.00;101038.19;4861970;29;20053;-72
2024/03/16 02:05:36;;;;;;;23.65;6.38;;;10.40;99.90;;;10.65;100.00;101044.34;4861497;29;20423;-72
2024/03/16 02:08:05;;;;;;;13.75;4.82;;;10.40;99.90;;;10.46;100.00;101047.03;4862017;29;20064;-71
2024/03/16 02:10:34;;;;;;;18.05;5.50;;;10.30;99.90;;;10.47;100.00;101054.09;4861676;29;20044;-72
2024/03/16 02:13:03;;;;;;;17.13;5.28;;;10.20;99.90;;;10.64;100.00;101049.66;4861689;29;20049;-72
2024/03/16 02:15:32;;;;;;;10.60;4.38;;;10.30;99.90;;;10.61;100.00;101058.47;4861604;29;20070;-72
2024/03/16 02:18:01;;;;;;;13.98;4.78;;;10.40;99.90;;;10.34;100.00;101032.06;4861791;29;20069;-72
2024/03/16 02:20:31;;;;;;;17.20;4.72;;;10.30;99.90;;;10.74;100.00;101065.50;4861794;29;20048;-72
2024/03/16 02:23:00;;;;;;;14.48;4.68;;;10.40;99.90;;;10.34;100.00;101037.34;4877427;29;20133;-72
2024/03/16 02:25:29;;;;;;;17.67;4.50;;;10.30;99.90;;;10.52;100.00;101069.06;4861573;29;20048;-72
2024/03/16 02:27:58;;;;;;;12.63;4.25;;;10.20;99.90;;;10.44;100.00;101059.38;4861685;29;20041;-72
2024/03/16 02:30:27;;;;;;;11.23;4.65;;;10.30;99.90;;;10.54;100.00;101079.66;4861597;29;20040;-72
2024/03/16 02:32:56;;;;;;;16.48;5.40;;;10.30;99.90;;;10.47;100.00;101080.53;4861564;29;20049;-72
2024/03/16 02:35:25;;;;;;;15.98;4.78;;;10.20;99.90;;;10.48;100.00;101082.28;4877360;29;20403;-72
2024/03/16 02:37:54;;;;;;;18.23;4.95;;;10.20;99.90;;;10.52;100.00;101087.59;4876966;29;20063;-72
2024/03/16 02:40:23;;;;;;;17.52;5.03;;;10.30;99.90;;;10.57;100.00;101087.56;4861769;29;20044;-72
2024/03/16 02:42:51;;;;;;;15.65;5.07;;;10.30;99.90;;;10.47;100.00;101091.13;4861359;29;20076;-72
2024/03/16 02:45:20;;;;;;;14.85;5.03;;;10.20;99.90;;;10.76;100.00;101095.47;4861428;29;20057;-72
2024/03/16 02:47:48;;;;;;;11.10;4.75;;;10.40;99.90;;;10.61;100.00;101105.19;4876897;29;20496;-72
2024/03/16 02:50:17;;;;;;;19.08;4.35;;;10.40;99.90;;;10.56;100.00;101096.41;4861245;29;20059;-74
2024/03/16 02:52:48;;;;;;;12.77;4.72;;;10.30;99.90;;;10.58;100.00;101105.22;4861810;29;20049;-72
2024/03/16 02:55:16;;;;;;;13.98;4.72;;;10.40;99.90;;;10.63;100.00;101114.00;4876371;29;20368;-72
2024/03/16 02:57:45;;;;;;;13.85;4.13;;;10.30;99.90;;;10.65;100.00;101112.25;4876492;29;20048;-72
2024/03/16 03:00:16;;;;;;;17.40;5.00;;;10.40;99.90;;;10.60;100.00;101116.66;4860739;29;20712;-72
2024/03/16 03:02:45;;;;;;;14.77;5.15;;;10.40;99.90;;;10.68;100.00;101155.44;4861223;29;20052;-72
2024/03/16 03:05:19;;;;;;;11.90;4.35;;;10.40;99.90;;;10.55;100.00;101127.25;4860554;29;20077;-72
2024/03/16 03:07:48;;;;;;;10.95;3.80;;;10.30;99.90;;;10.34;100.00;101129.00;4861156;29;20081;-71
2024/03/16 03:10:16;;;;;;;8.82;4.18;;;10.20;99.90;;;10.18;100.00;101132.53;4860638;29;20051;-72
2024/03/16 03:12:45;;;;;;;9.55;4.00;;;9.90;99.90;;;10.43;100.00;101131.66;4860335;29;20144;-72
2024/03/16 03:15:14;;;;;;;9.07;3.70;;;10.10;99.90;;;10.60;100.00;101132.53;4860589;29;20507;-72
2024/03/16 03:17:43;;;;;;;8.38;4.00;;;10.30;99.90;;;10.80;100.00;101155.44;4860265;29;20060;-72
2024/03/16 03:20:11;;;;;;;9.55;4.25;;;10.60;99.90;;;10.65;100.00;101167.78;4860181;29;20120;-71
2024/03/16 03:22:40;;;;;;;6.53;3.53;;;10.40;99.90;;;10.58;100.00;101163.41;4875728;29;20404;-72
2024/03/16 03:25:10;;;;;;;10.75;3.92;;;10.30;99.90;;;10.48;100.00;101161.63;4860339;29;20045;-72
2024/03/16 03:27:39;;;;;;;9.70;3.92;;;10.30;99.90;;;10.75;100.00;101169.56;4876212;29;20135;-72
2024/03/16 03:30:08;;;;;;;12.40;4.28;;;10.50;99.90;;;10.85;100.00;101177.50;4860057;29;20045;-71
2024/03/16 03:32:37;;;;;;;10.30;4.63;;;10.60;99.90;;;10.83;100.00;101178.38;4860427;29;20057;-72
2024/03/16 03:35:06;;;;;;;10.25;4.15;;;10.60;99.90;;;10.68;100.00;101183.69;4859845;29;20075;-72
2024/03/16 03:37:34;;;;;;;10.40;4.38;;;10.50;99.90;;;10.72;100.00;101193.41;4860383;29;20073;-72
2024/03/16 03:40:04;;;;;;;12.30;4.15;;;10.50;99.90;;;10.74;100.00;101194.28;4859991;29;20049;-72
2024/03/16 03:42:34;;;;;;;13.30;4.47;;;10.50;99.90;;;10.82;100.00;101201.31;4859980;29;20559;-72
2024/03/16 03:45:24;;;;;;;14.82;5.13;;;10.50;99.90;;;10.70;100.00;101211.88;4860245;29;20049;-72
2024/03/16 03:48:02;;;;;;;20.70;4.85;;;10.50;99.90;;;10.84;100.00;101217.19;4862997;29;20049;-71
2024/03/16 03:50:32;;;;;;;14.80;4.72;;;10.60;99.90;;;10.55;100.00;101201.31;4860938;29;20074;-72
2024/03/16 03:53:02;;;;;;;13.95;4.15;;;10.40;99.90;;;10.28;100.00;101213.63;4860245;29;20045;-71
2024/03/16 03:55:31;;;;;;;9.77;4.00;;;10.20;99.90;;;10.11;100.00;101229.41;4859408;29;20044;-71
2024/03/16 03:58:02;;;;;;;14.70;4.05;;;10.00;99.90;;;10.10;100.00;101227.66;4859870;29;20108;-72
2024/03/16 04:00:31;;;;;;;8.93;4.15;;;9.90;99.90;;;10.13;100.00;101234.69;4859493;29;20514;-72
2024/03/16 04:02:59;;;;;;;10.32;3.88;;;9.90;99.90;;;10.04;100.00;101235.53;4859526;29;20076;-71
2024/03/16 04:05:28;;;;;;;13.55;4.55;;;9.80;99.90;;;10.15;100.00;101246.16;4859419;29;20049;-72
2024/03/16 04:07:56;;;;;;;11.73;4.25;;;9.90;99.90;;;10.16;100.00;101253.22;4859131;29;20124;-72
2024/03/16 04:10:25;;;;;;;13.85;4.38;;;9.90;99.90;;;10.32;100.00;101249.72;4875024;29;20056;-72
2024/03/16 04:12:54;;;;;;;12.32;4.22;;;10.00;99.90;;;10.44;100.00;101261.25;4859453;29;20049;-72
2024/03/16 04:15:22;;;;;;;14.13;4.60;;;10.10;99.90;;;10.38;100.00;101265.63;4859386;29;20063;-72
2024/03/16 04:17:51;;;;;;;22.38;4.65;;;10.10;99.90;;;10.35;100.00;101273.56;4859198;29;20049;-71
2024/03/16 04:20:20;;;;;;;22.42;5.10;;;10.10;99.90;;;10.16;100.00;101279.66;4859285;29;20141;-72
2024/03/16 04:22:48;;;;;;;13.85;4.70;;;10.00;99.90;;;10.40;100.00;101282.38;4875065;29;20056;-71
2024/03/16 04:25:18;;;;;;;13.82;4.72;;;10.10;99.90;;;10.33;100.00;101285.88;4859871;29;20053;-71
2024/03/16 04:27:46;;;;;;;18.10;5.40;;;10.00;99.90;;;10.75;100.00;101289.53;4859772;29;20096;-72
2024/03/16 04:30:15;;;;;;;18.17;4.93;;;10.40;99.90;;;10.76;100.00;101291.28;4874935;29;20049;-71
2024/03/16 04:32:44;;;;;;;12.82;5.05;;;10.50;99.90;;;10.88;100.00;101291.28;4859280;29;20059;-72
2024/03/16 04:35:13;;;;;;;15.18;4.72;;;10.60;99.90;;;10.71;100.00;101286.84;4874786;29;20147;-71
2024/03/16 04:37:41;;;;;;;17.98;5.07;;;10.60;99.90;;;10.98;100.00;101291.28;4874797;29;20519;-72
2024/03/16 04:40:10;;;;;;;13.15;4.55;;;10.70;99.90;;;11.09;100.00;101300.13;4859554;29;20129;-71
2024/03/16 04:42:40;;;;;;;11.88;4.28;;;10.80;99.90;;;10.88;100.00;101306.28;4859316;29;20045;-71
2024/03/16 04:45:09;;;;;;;11.25;4.07;;;10.70;99.90;;;10.56;100.00;101303.59;4875152;29;20059;-71
2024/03/16 04:47:38;;;;;;;16.20;4.10;;;10.40;99.90;;;10.55;100.00;101312.38;4859536;29;20043;-71
2024/03/16 04:50:07;;;;;;;16.27;4.40;;;10.40;99.90;;;10.45;100.00;101318.53;4859599;29;20053;-71
2024/03/16 04:52:36;;;;;;;16.33;4.70;;;10.20;99.90;;;10.28;100.00;101322.88;4859217;29;20096;-71
2024/03/16 04:55:05;;;;;;;13.55;4.40;;;10.10;99.90;;;10.30;100.00;101336.13;4859386;29;20073;-72
2024/03/16 04:57:33;;;;;;;15.20;4.25;;;10.10;99.90;;;10.29;100.00;101345.81;4859391;29;20047;-72
2024/03/16 05:00:02;;;;;;;15.38;4.88;;;10.10;99.90;;;10.31;100.00;101364.31;4859355;29;20140;-71
2024/03/16 05:02:31;;;;;;;9.73;4.10;;;10.00;99.90;;;10.04;100.00;101359.75;4859606;29;20068;-71
2024/03/16 05:05:00;;;;;;;9.02;3.80;;;9.80;99.90;;;9.67;100.00;101358.63;4859604;29;20049;-71
2024/03/16 05:07:30;;;;;;;11.13;4.05;;;9.60;99.90;;;9.86;100.00;101380.75;4861899;29;20518;-72
2024/03/16 05:09:59;;;;;;;;;;;9.60;99.90;;;10.01;100.00;101386.13;4863967;29;20506;-72
2024/03/16 05:12:27;;;;;;;8.13;3.50;;;9.80;99.90;;;9.92;100.00;101391.38;4878966;29;20509;-71
2024/03/16 05:14:56;;;;;;;11.27;4.05;;;9.70;99.90;;;9.95;100.00;101402.84;4878459;29;20057;-72
2024/03/16 05:17:25;;;;;;;17.85;4.78;;;9.70;99.90;;;10.11;100.00;101408.25;4862997;29;20084;-71
2024/03/16 05:19:54;;;;;;;11.68;5.32;;;9.90;99.90;;;10.20;100.00;101408.34;4863612;29;20116;-71
2024/03/16 05:22:23;;;;;;;9.10;4.18;;;10.00;99.90;;;10.19;100.00;101425.06;4863195;29;20056;-71
2024/03/16 05:24:52;;;;;;;11.15;4.43;;;10.00;99.90;;;10.39;100.00;101410.19;4862694;29;20056;-72
2024/03/16 05:27:20;;;;;;;9.20;4.03;;;10.20;99.90;;;10.40;100.00;101423.41;4862551;29;20048;-72
2024/03/16 05:29:49;;;;;;;8.18;3.90;;;10.20;99.90;;;10.45;100.00;101424.31;4878159;29;20053;-71
2024/03/16 05:32:17;;;;;;;8.65;4.05;;;10.20;99.90;;;10.54;100.00;101434.06;4862428;29;20056;-72
2024/03/16 05:34:46;;;;;;;14.15;4.45;;;10.30;99.90;;;10.59;100.00;101427.03;4862339;29;20419;-71
2024/03/16 05:37:14;;;;;;;10.77;4.28;;;10.40;99.90;;;10.76;100.00;101443.88;4862146;29;20109;-71
2024/03/16 05:39:43;;;;;;;11.63;4.63;;;10.50;99.90;;;10.76;100.00;101447.38;4862098;29;20049;-72
2024/03/16 05:42:12;;;;;;;14.15;4.22;;;10.50;99.90;;;10.77;100.00;101454.47;4877625;29;20052;-71
2024/03/16 05:44:40;;;;;;;11.48;4.32;;;10.50;99.90;;;10.78;100.00;101468.59;4877580;29;20129;-72
2024/03/16 05:47:09;;;;;;;13.68;4.90;;;10.50;99.90;;;10.59;100.00;101472.00;4861928;29;20061;-71
2024/03/16 05:49:39;;;;;;;14.00;5.35;;;10.40;99.90;;;10.65;100.00;101474.66;4861740;29;20136;-72
2024/03/16 05:52:07;;;;;;;17.25;4.97;;;10.40;99.90;;;10.68;100.00;101478.22;4861864;29;20455;-72
2024/03/16 05:54:36;;;;;;;11.93;4.60;;;10.40;99.90;;;10.52;100.00;101491.34;4861721;29;20045;-71
2024/03/16 05:57:06;;;;;;;11.60;4.63;;;10.30;99.90;;;10.69;100.00;101497.63;4861938;29;20055;-72
2024/03/16 05:59:34;;;;;;;15.20;5.10;;;10.40;99.90;;;10.88;100.00;101504.75;4877353;29;20616;-73
2024/03/16 06:02:03;;;;;;;12.05;4.88;;;10.60;99.90;;;10.54;99.46;101502.84;4861628;29;20049;-72
2024/03/16 06:04:32;;;;;;;11.85;4.85;;;10.40;99.90;;;10.79;99.87;101508.28;4861631;29;20045;-73
2024/03/16 06:07:00;;;;;;;11.00;4.45;;;10.50;99.90;;;10.95;99.10;101519.81;4858258;29;20068;-72
2024/03/16 06:09:29;;;;;;;14.05;4.57;;;10.70;99.90;;;11.05;97.93;101532.22;4858283;29;20056;-72
2024/03/16 06:11:58;;;;;;;11.63;4.75;;;10.80;99.90;;;11.06;96.95;101541.91;4858118;29;20160;-73
2024/03/16 06:14:26;;;;;;;12.05;4.72;;;10.80;99.90;;;11.10;95.80;101541.06;4858216;29;20070;-72
2024/03/16 06:16:55;;;;;;;7.22;3.95;;;10.80;99.90;;;11.11;94.86;101552.53;4857683;29;20095;-73
2024/03/16 06:19:24;;;;;;;12.18;4.70;;;10.90;99.90;;;10.90;94.43;101550.66;4858122;29;20137;-73
2024/03/16 06:21:52;;;;;;;8.70;4.28;;;10.70;99.90;;;10.68;94.18;101551.44;4858037;29;20440;-73
2024/03/16 06:24:23;;;;;;;9.90;4.82;;;10.60;99.90;;;10.55;93.73;101560.16;4858221;29;20045;-72
2024/03/16 06:27:00;;;;;;;10.68;4.45;;;10.40;99.90;;;10.56;94.24;101593.66;4858401;29;20041;-72
2024/03/16 06:29:30;;;;;;;10.02;4.45;;;10.30;99.90;;;10.55;94.39;101570.75;4858306;29;20404;-72
2024/03/16 06:32:05;;;;;;;10.65;5.13;;;10.30;99.90;;;10.53;95.29;101580.44;4858092;29;20048;-73
2024/03/16 06:34:34;;;;;;;9.77;4.40;;;10.30;99.90;;;10.54;94.92;101574.25;4858484;29;20050;-73
2024/03/16 06:37:03;;;;;;;7.07;4.38;;;10.30;99.90;;;10.32;95.67;101588.16;4857946;29;20397;-72
2024/03/16 06:39:32;;;;;;;9.48;4.25;;;10.10;99.90;;;10.42;95.27;101592.66;4858008;29;20106;-73
2024/03/16 06:42:00;;;;;;;10.60;4.40;;;10.20;99.90;;;10.40;95.05;101597.94;4873501;29;20074;-73
2024/03/16 06:44:30;;;;;;;12.15;4.72;;;10.10;99.90;;;10.25;95.28;101612.81;4873489;29;20144;-73
2024/03/16 06:46:58;;;;;;;9.27;4.65;;;10.00;99.90;;;10.38;95.92;101607.63;4857785;29;20044;-72
2024/03/16 06:49:27;;;;;;;8.73;4.10;;;10.10;99.90;;;10.59;95.71;101614.84;4857396;29;20042;-72
2024/03/16 06:51:55;;;;;;;12.70;4.28;;;10.20;99.90;;;10.81;95.34;101628.25;4857266;29;20049;-72
2024/03/16 06:54:24;;;;;;;12.75;4.40;;;10.50;99.90;;;10.72;95.57;101629.94;4857311;29;20045;-73
2024/03/16 06:56:53;;;;;;;11.90;4.60;;;10.50;99.90;;;10.51;96.09;101635.09;4857483;29;20411;-72
2024/03/16 06:59:22;;;;;;;12.48;4.47;;;10.30;99.90;;;10.48;97.20;101611.22;4857772;29;20176;-73
2024/03/16 07:01:50;;;;;;;11.52;4.55;;;10.30;99.90;;;10.77;96.31;101628.22;4858765;29;20511;-71
2024/03/16 07:04:20;;;;;;;10.88;4.88;;;10.50;99.90;;;10.82;95.64;101655.56;4874128;29;20046;-72
2024/03/16 07:06:48;;;;;;;10.13;4.40;;;10.60;99.90;;;10.73;95.53;101653.75;4857195;29;20049;-71
2024/03/16 07:09:18;;;;;;;11.07;4.32;;;10.60;99.90;;;10.96;95.72;101664.50;4857001;29;20155;-73
2024/03/16 07:11:47;;;;;;;17.00;5.07;;;10.70;99.90;;;10.99;95.06;101669.84;4857686;29;20042;-72
2024/03/16 07:14:17;;;;;;;17.58;5.45;;;10.80;99.90;;;10.85;94.62;101676.78;4857804;29;20693;-73
2024/03/16 07:16:45;;;;;;;11.00;4.72;;;10.70;99.90;;;10.83;94.26;101675.88;4857232;29;20053;-69
2024/03/16 07:19:16;;;;;;;9.75;4.80;;;10.60;99.90;;;10.87;94.00;101669.75;4857179;29;20053;-70
2024/03/16 07:21:45;;;;;;;10.90;4.57;;;10.70;99.90;;;10.75;94.46;101693.47;4857535;29;20080;-70
2024/03/16 07:24:15;;;;;;;12.65;5.20;;;10.60;99.90;;;10.81;94.32;101693.50;4857431;29;20395;-70
2024/03/16 07:26:43;;;;;;;12.23;4.80;;;10.60;99.90;;;10.71;95.32;101699.59;4857493;29;20085;-70
2024/03/16 07:29:12;;;;;;;13.63;5.18;;;10.50;99.90;;;10.85;94.16;101692.66;4856059;29;20049;-69
2024/03/16 07:31:41;;;;;;;16.55;5.38;;;10.60;99.90;;;10.71;93.41;101712.84;4856884;29;20065;-70
2024/03/16 07:34:11;;;;;;;19.48;5.38;;;10.60;99.90;;;10.64;93.98;101713.66;4857105;29;20472;-69
2024/03/16 07:36:41;;;;;;;9.00;5.03;;;10.40;99.90;;;10.84;94.27;101714.69;4857408;29;20049;-69
2024/03/16 07:39:11;;;;;;;14.85;5.03;;;10.50;99.90;;;10.96;93.41;101733.34;4872998;29;20519;-70
2024/03/16 07:41:39;;;;;;;13.18;4.82;;;10.70;99.90;;;11.16;92.84;101729.09;4872652;29;20069;-70
2024/03/16 07:44:08;;;;;;;10.45;4.30;;;10.90;99.90;;;11.23;92.67;101738.81;4888196;29;20049;-71
2024/03/16 07:46:36;;;;;;;12.63;4.85;;;11.00;99.90;;;10.95;93.25;101736.88;4856921;29;20198;-72
2024/03/16 07:49:05;;;;;;;16.90;5.20;;;10.80;99.90;;;11.04;92.89;101734.28;4856966;29;20508;-70
2024/03/16 07:51:37;;;;;;;18.73;5.00;;;10.80;99.90;;;10.74;93.97;101744.63;4857383;29;20061;-70
2024/03/16 07:54:11;;;;;;;10.85;5.07;;;10.60;99.90;;;10.83;94.80;101747.34;4873170;29;20058;-71
2024/03/16 07:56:40;;;;;;;13.40;4.85;;;10.60;99.90;;;11.18;94.48;101737.91;4857538;29;20053;-68
2024/03/16 07:59:09;;;;;;;9.70;4.95;;;10.80;99.90;;;11.37;93.28;101746.88;4857370;29;20081;-71
2024/03/16 08:01:39;;;;;;;10.80;4.82;;;11.00;99.90;;;11.49;92.61;101742.53;4873074;29;20388;-71
2024/03/16 08:04:08;;;;;;;9.63;4.72;;;11.20;99.90;;;11.49;91.41;101753.13;4857006;29;20070;-69
2024/03/16 08:06:37;;;;;;;13.43;4.95;;;11.20;99.90;;;11.68;90.38;101749.75;4856667;29;20148;-69
2024/03/16 08:09:08;;;;;;;8.93;4.22;;;11.40;99.90;;;11.67;89.22;101761.22;4856565;29;20037;-70
2024/03/16 08:11:41;;;;;;;12.93;4.75;;;11.40;99.90;;;11.65;87.70;101759.41;4856693;29;20128;-74
2024/03/16 08:14:11;;;;;;;13.88;4.45;;;11.50;99.90;;;11.41;85.66;101765.44;4856781;29;20540;-71
2024/03/16 08:16:39;;;;;;;11.02;4.25;;;11.40;99.90;;;11.51;85.13;101764.63;4872519;29;20527;-71
2024/03/16 08:19:08;;;;;;;10.95;4.30;;;11.30;99.90;;;11.61;83.87;101763.78;4856851;29;20110;-70
2024/03/16 08:21:38;;;;;;;10.68;4.57;;;11.40;99.90;;;11.33;83.27;101782.16;4856422;29;20080;-69
2024/03/16 08:24:07;;;;;;;9.80;4.40;;;11.20;99.90;;;11.10;85.05;101775.78;4856915;29;20123;-71
2024/03/16 08:31:47;;;;;;;12.38;5.20;;;10.90;99.90;;;10.59;87.25;101785.03;4855775;29;20071;-70
2024/03/16 08:34:16;;;;;;;11.88;4.90;;;10.40;99.90;;;10.82;87.60;101795.84;4856141;29;20049;-70
2024/03/16 08:36:45;;;;;;;10.27;4.20;;;10.50;99.90;;;10.71;85.90;101806.34;4871894;29;20510;-70
2024/03/16 08:39:14;;;;;;;8.55;4.25;;;10.50;99.90;;;10.57;86.83;101810.59;4871978;29;20054;-70
2024/03/16 08:41:42;;;;;;;11.23;4.65;;;10.40;99.90;;;10.66;87.13;101818.66;4859313;29;20041;-70
2024/03/16 08:44:11;;;;;;;9.60;4.47;;;10.40;99.90;;;10.88;86.28;101811.78;4860094;29;20144;-69
2024/03/16 08:46:39;;;;;;;9.48;4.18;;;10.60;99.90;;;10.66;84.44;101818.66;4859803;29;20523;-70
2024/03/16 08:49:08;;;;;;;9.60;3.78;;;10.50;99.90;;;10.90;82.13;101821.53;4859514;29;20481;-69
2024/03/16 08:51:37;;;;;;;7.38;3.53;;;10.70;99.90;;;11.04;80.37;101834.88;4859553;29;20056;-69
2024/03/16 08:54:06;;;;;;;9.82;4.20;;;10.90;99.90;;;10.97;80.03;101835.72;4859992;29;20045;-70
2024/03/16 08:56:34;;;;;;;12.52;4.10;;;10.80;99.90;;;11.17;79.36;101841.19;4859524;29;20080;-70
2024/03/16 08:59:03;;;;;;;7.43;3.72;;;11.00;99.90;;;11.14;78.91;101852.63;4860163;29;20061;-69
2024/03/16 09:01:32;;;;;;;9.73;4.15;;;10.90;99.90;;;11.27;78.25;101851.84;4875269;29;20153;-69
2024/03/16 09:04:00;;;;;;;8.30;3.78;;;11.00;99.90;;;11.20;76.42;101849.16;4859570;29;20053;-70
2024/03/16 09:06:29;;;;;;;6.60;4.00;;;11.00;99.90;;;11.43;75.74;101855.53;4861982;29;20092;-70
2024/03/16 09:09:00;;;;;;;6.38;3.95;;;11.20;99.90;;;11.19;75.18;101856.19;4862250;29;20410;-70
2024/03/16 09:11:29;;;;;;;5.50;3.30;;;11.10;99.90;;;11.28;72.15;101877.50;4862619;29;20045;-70
2024/03/16 09:13:58;;;;;;;6.50;3.63;;;11.00;99.90;;;11.48;71.58;101875.88;4877992;29;20060;-70
2024/03/16 09:16:26;;;;;;;5.25;3.63;;;11.20;99.90;;;11.48;70.32;101877.63;4862241;29;20109;-70
2024/03/16 09:18:55;;;;;;;6.25;3.40;;;11.30;99.90;;;11.19;70.34;101842.97;4862405;29;20057;-71
2024/03/16 09:21:24;;;;;;;7.22;3.83;;;11.20;99.90;;;11.48;70.57;101886.47;4877903;29;20060;-70
2024/03/16 09:23:52;;;;;;;5.45;3.53;;;11.30;99.90;;;11.49;71.47;101896.22;4862389;29;20498;-70
2024/03/16 09:26:21;;;;;;;5.82;3.65;;;11.30;99.90;;;11.47;71.59;101905.00;4862296;29;20049;-70
2024/03/16 09:28:51;;;;;;;5.82;3.88;;;11.20;99.90;;;11.38;71.54;101903.16;4862141;29;20077;-70
2024/03/16 09:31:19;;;;;;;10.13;3.70;;;11.10;99.90;;;11.18;72.07;101909.16;4862266;29;20074;-70
2024/03/16 09:33:48;;;;;;;6.68;3.63;;;11.00;99.90;;;11.34;72.56;101903.13;4862012;29;20097;-70
2024/03/16 09:36:17;;;;;;;9.05;4.13;;;11.10;99.90;;;11.55;72.15;101912.16;4877676;29;20052;-70
2024/03/16 09:38:45;;;;;;;10.35;4.28;;;11.30;99.90;;;11.27;73.63;101919.81;4861917;29;20113;-70
2024/03/16 09:41:16;;;;;;;11.75;4.40;;;11.10;99.90;;;11.14;73.50;101918.84;4862383;29;20199;-70
2024/03/16 09:43:44;;;;;;;9.82;4.30;;;11.00;99.90;;;11.48;74.25;101931.50;4862070;29;20053;-70
2024/03/16 09:46:12;;;;;;;10.80;4.53;;;11.30;99.90;;;11.56;74.63;101940.41;4846572;29;20139;-70
2024/03/16 09:48:40;;;;;;;12.18;4.25;;;11.40;99.90;;;11.39;76.91;101936.75;4846206;29;20049;-70
2024/03/16 09:51:09;;;;;;;6.78;3.80;;;11.10;99.90;;;11.44;77.06;101944.75;4846167;29;20049;-70
2024/03/16 09:53:38;;;;;;;10.00;4.00;;;11.20;99.90;;;11.59;76.95;101945.72;4861733;29;20111;-70
2024/03/16 09:56:07;;;;;;;11.73;4.20;;;11.40;99.90;;;11.58;77.54;101948.38;4846831;29;20041;-70
2024/03/16 09:58:35;;;;;;;15.18;4.10;;;11.40;99.90;;;11.56;77.90;101956.31;4846713;29;20088;-70
2024/03/16 10:01:03;;;;;;;13.85;4.18;;;11.40;99.90;;;11.58;78.52;101959.88;4846261;29;20049;-70
2024/03/16 10:03:31;;;;;;;12.82;4.50;;;11.40;99.90;;;11.73;77.87;101959.13;4846166;29;20083;-70
2024/03/16 10:05:59;;;;;;;8.55;4.32;;;11.50;99.90;;;11.57;78.94;101963.41;4846013;29;20057;-71
2024/03/16 10:08:27;;;;;;;13.13;4.53;;;11.40;99.90;;;11.86;77.59;101968.09;4861289;29;20100;-70
2024/03/16 10:11:10;;;;;;;11.80;4.32;;;11.60;99.90;;;11.67;74.99;101972.38;4845990;29;20040;-70
2024/03/16 10:13:38;;;;;;;9.77;4.10;;;11.50;99.90;;;11.22;75.49;101919.81;4846404;29;20065;-70
2024/03/16 10:16:07;;;;;;;9.45;4.70;;;11.50;99.90;;;11.55;74.98;101981.06;4861426;29;20176;-70
2024/03/16 10:18:35;;;;;;;9.43;4.05;;;11.40;99.90;;;11.71;74.88;101983.00;4876725;29;20423;-69